Time;durP1;ratioP1;P1;durP2;ratioP2;P2;SDS_P1;SDS_P2;PMS_P1;PMS_P2;Temp;Humidity;BMP_temperature;BMP_pressure;BME280_temperature;BME280_humidity;BME280_pressure;Samples;Min_cycle;Max_cycle;Signal;HPM_P1;HPM_P2
2021/12/18 00:01:44;;;;;;;3.63;2.20;;;21.00;80.50;;;;;;7874724;28;20273;-51
2021/12/18 00:05:30;;;;;;;4.45;2.20;;;20.90;80.40;;;;;;7874739;28;20268;-51
2021/12/18 00:09:16;;;;;;;4.57;2.60;;;20.90;80.50;;;;;;7874381;28;20213;-50
2021/12/18 00:13:02;;;;;;;4.28;2.10;;;20.90;80.60;;;;;;7874709;28;20170;-54
2021/12/18 00:16:47;;;;;;;5.60;2.28;;;20.80;80.40;;;;;;7874290;28;20185;-50
2021/12/18 00:20:36;;;;;;;4.45;2.17;;;20.80;80.50;;;;;;7874057;28;20182;-51
2021/12/18 00:24:21;;;;;;;4.10;2.30;;;20.80;80.40;;;;;;7874238;28;20211;-50
2021/12/18 00:28:07;;;;;;;3.83;2.05;;;20.70;80.40;;;;;;7873864;28;20747;-52
2021/12/18 00:31:53;;;;;;;4.00;2.20;;;20.70;80.40;;;;;;7874122;28;20180;-50
2021/12/18 00:35:39;;;;;;;2.40;1.83;;;20.70;80.30;;;;;;7873952;28;20646;-50
2021/12/18 00:39:24;;;;;;;4.78;2.45;;;20.70;80.20;;;;;;7873548;28;20213;-50
2021/12/18 00:43:28;;;;;;;3.17;2.28;;;20.70;80.20;;;;;;7873523;28;20188;-53
2021/12/18 00:47:14;;;;;;;2.35;1.90;;;20.70;80.20;;;;;;7872603;28;20210;-51
2021/12/18 00:50:59;;;;;;;3.30;2.03;;;20.60;80.00;;;;;;7873303;28;20298;-51
2021/12/18 00:54:45;;;;;;;3.65;1.90;;;20.70;80.00;;;;;;7873430;28;20184;-50
2021/12/18 00:58:30;;;;;;;4.28;2.35;;;20.60;79.90;;;;;;7873065;28;20208;-51
2021/12/18 01:02:15;;;;;;;2.45;1.60;;;20.60;79.90;;;;;;7873473;28;20381;-50
2021/12/18 01:06:01;;;;;;;3.65;1.95;;;20.60;79.80;;;;;;7873410;28;20203;-50
2021/12/18 01:13:38;;;;;;;3.45;2.15;;;20.60;79.80;;;;;;7873062;28;20158;-50
2021/12/18 01:25:13;;;;;;;2.85;2.03;;;20.50;79.60;;;;;;7872608;28;20169;-52
2021/12/18 01:28:59;;;;;;;2.80;2.35;;;20.50;79.50;;;;;;7872019;28;20594;-51
2021/12/18 01:32:45;;;;;;;2.65;1.80;;;20.50;79.50;;;;;;7872309;28;20173;-53
2021/12/18 01:36:30;;;;;;;2.72;1.88;;;20.50;79.50;;;;;;7872044;28;20646;-49
2021/12/18 01:40:17;;;;;;;3.72;2.00;;;20.50;79.50;;;;;;7871933;28;20242;-51
2021/12/18 01:44:36;;;;;;;2.20;1.77;;;20.50;79.50;;;;;;7871845;28;20177;-51
2021/12/18 01:52:32;;;;;;;3.15;1.77;;;20.40;79.50;;;;;;7871538;28;20169;-51
2021/12/18 01:56:19;;;;;;;4.30;2.00;;;20.40;79.50;;;;;;7871483;28;20306;-52
2021/12/18 02:00:22;;;;;;;3.15;1.85;;;20.40;79.40;;;;;;7870811;28;20196;-52
2021/12/18 02:04:07;;;;;;;2.42;2.22;;;20.40;79.40;;;;;;7871640;28;20278;-54
2021/12/18 02:07:53;;;;;;;3.17;1.92;;;20.40;79.40;;;;;;7870575;28;20209;-52
2021/12/18 02:11:39;;;;;;;4.55;1.80;;;20.30;79.30;;;;;;7870919;28;20177;-51
2021/12/18 02:23:18;;;;;;;2.40;1.80;;;20.30;79.30;;;;;;7871172;28;20170;-53
2021/12/18 02:27:03;;;;;;;3.00;1.70;;;20.20;79.20;;;;;;7871193;28;20232;-52
2021/12/18 02:30:53;;;;;;;3.85;1.92;;;20.30;79.20;;;;;;7870633;28;20200;-52
2021/12/18 02:34:40;;;;;;;2.92;1.67;;;20.30;79.20;;;;;;7870924;28;20216;-52
2021/12/18 02:38:44;;;;;;;2.30;1.90;;;20.20;79.10;;;;;;7870563;28;20555;-51
2021/12/18 02:42:32;;;;;;;3.58;1.90;;;20.30;79.10;;;;;;7870214;28;20176;-54
2021/12/18 02:46:20;;;;;;;2.75;1.95;;;20.20;79.00;;;;;;7870043;28;20208;-52
2021/12/18 02:50:05;;;;;;;3.67;1.90;;;20.20;79.00;;;;;;7869614;28;20208;-51
2021/12/18 02:53:53;;;;;;;2.70;1.92;;;20.20;78.90;;;;;;7869824;28;20197;-53
2021/12/18 02:57:39;;;;;;;3.58;1.90;;;20.10;78.90;;;;;;7869469;28;20193;-52
2021/12/18 03:01:27;;;;;;;3.20;1.92;;;20.10;78.80;;;;;;7869620;28;20184;-52
2021/12/18 03:05:20;;;;;;;2.40;1.67;;;20.20;78.90;;;;;;7869539;28;20221;-51
2021/12/18 03:21:52;;;;;;;3.28;1.85;;;20.10;78.80;;;;;;7869727;28;20276;-51
2021/12/18 03:25:17;;;;;;;2.88;1.65;;;20.10;78.80;;;;;;7869120;28;20209;-52
2021/12/18 03:29:03;;;;;;;3.38;1.45;;;20.10;78.70;;;;;;7868893;28;20224;-49
2021/12/18 03:32:48;;;;;;;3.72;1.90;;;20.00;78.60;;;;;;7869082;28;20170;-51
2021/12/18 03:36:34;;;;;;;2.75;1.67;;;20.10;78.80;;;;;;7869063;28;20195;-52
2021/12/18 03:40:22;;;;;;;2.83;2.00;;;20.00;78.70;;;;;;7868569;28;20251;-50
2021/12/18 03:44:08;;;;;;;1.45;1.33;;;20.00;78.70;;;;;;7868906;28;20238;-51
2021/12/18 03:47:53;;;;;;;2.45;1.77;;;20.00;78.60;;;;;;7868332;28;20240;-51
2021/12/18 03:51:39;;;;;;;4.22;1.65;;;20.00;78.60;;;;;;7868761;28;20674;-53
2021/12/18 03:55:26;;;;;;;1.70;1.60;;;20.00;78.60;;;;;;7869003;28;20577;-52
2021/12/18 03:59:12;;;;;;;3.63;1.63;;;20.00;78.50;;;;;;7868485;28;20272;-52
2021/12/18 04:02:57;;;;;;;2.42;1.60;;;20.00;78.50;;;;;;7868763;28;20230;-51
2021/12/18 04:06:43;;;;;;;2.92;1.60;;;19.90;78.40;;;;;;7868515;28;20177;-49
2021/12/18 04:10:29;;;;;;;2.33;1.50;;;19.90;78.50;;;;;;7868433;28;20602;-52
2021/12/18 04:14:17;;;;;;;2.35;1.75;;;19.90;79.30;;;;;;7868622;28;20212;-53
2021/12/18 04:18:03;;;;;;;1.92;1.48;;;19.90;78.40;;;;;;7868152;28;20579;-52
2021/12/18 04:21:49;;;;;;;2.10;1.60;;;19.90;78.40;;;;;;7869899;28;20188;-52
2021/12/18 04:25:34;;;;;;;1.95;1.27;;;19.80;78.30;;;;;;7874334;28;20173;-51
2021/12/18 04:29:20;;;;;;;1.88;1.58;;;19.80;78.30;;;;;;7874000;28;20208;-50
2021/12/18 04:33:05;;;;;;;3.38;1.90;;;19.80;78.20;;;;;;7874030;28;20175;-52
2021/12/18 04:36:51;;;;;;;4.22;1.65;;;19.80;78.10;;;;;;7873766;28;20174;-54
2021/12/18 04:40:36;;;;;;;2.95;2.03;;;19.80;78.20;;;;;;7874360;28;20203;-50
2021/12/18 04:44:22;;;;;;;1.95;1.50;;;19.80;78.10;;;;;;7873670;28;20174;-50
2021/12/18 04:48:07;;;;;;;3.78;1.70;;;19.80;78.10;;;;;;7873400;28;20227;-52
2021/12/18 04:51:54;;;;;;;3.92;2.33;;;19.80;78.00;;;;;;7873444;28;20545;-50
2021/12/18 04:55:39;;;;;;;2.90;1.85;;;19.80;78.00;;;;;;7873239;28;20721;-51
2021/12/18 04:59:25;;;;;;;1.83;1.67;;;19.80;78.00;;;;;;7872822;28;20535;-52
2021/12/18 05:03:12;;;;;;;2.40;1.90;;;19.80;78.00;;;;;;7873058;28;20181;-50
2021/12/18 05:06:58;;;;;;;2.55;1.80;;;19.80;78.80;;;;;;7872752;28;20197;-51
2021/12/18 05:10:43;;;;;;;2.08;1.50;;;19.70;77.90;;;;;;7872583;28;20242;-51
2021/12/18 05:14:29;;;;;;;1.73;1.33;;;19.70;78.00;;;;;;7872810;28;20174;-52
2021/12/18 05:18:14;;;;;;;1.92;1.60;;;19.70;77.90;;;;;;7872267;28;20212;-51
2021/12/18 05:22:00;;;;;;;3.08;1.70;;;19.70;77.90;;;;;;7872544;28;20191;-50
2021/12/18 05:25:45;;;;;;;2.75;1.52;;;19.70;77.80;;;;;;7872432;28;20178;-52
2021/12/18 05:29:31;;;;;;;2.58;1.60;;;19.70;77.80;;;;;;7871886;28;20291;-50
2021/12/18 05:33:16;;;;;;;1.92;1.33;;;19.70;77.70;;;;;;7871664;28;20185;-53
2021/12/18 05:37:31;;;;;;;2.05;1.70;;;19.70;77.70;;;;;;7871931;28;20201;-52
2021/12/18 05:41:16;;;;;;;2.42;1.52;;;19.70;77.50;;;;;;7871954;28;20170;-51
2021/12/18 05:45:04;;;;;;;3.13;1.70;;;19.70;77.60;;;;;;7871767;28;20213;-50
2021/12/18 05:48:50;;;;;;;2.47;1.83;;;19.60;78.40;;;;;;7871390;28;20220;-52
2021/12/18 05:52:35;;;;;;;2.78;1.50;;;19.60;77.60;;;;;;7871572;28;20686;-51
2021/12/18 05:56:21;;;;;;;2.88;1.80;;;19.60;78.40;;;;;;7871580;28;20231;-52
2021/12/18 06:00:10;;;;;;;2.42;1.67;;;19.60;77.00;;;;;;7870989;28;20564;-51
2021/12/18 06:03:56;;;;;;;2.20;1.70;;;19.60;77.50;;;;;;7871239;28;20181;-52
2021/12/18 06:11:40;;;;;;;2.25;1.65;;;19.60;77.50;;;;;;7871224;28;20165;-54
2021/12/18 06:15:26;;;;;;;2.13;1.48;;;19.60;77.40;;;;;;7870939;28;20177;-53
2021/12/18 06:19:11;;;;;;;2.67;1.63;;;19.60;77.50;;;;;;7870503;28;20202;-54
2021/12/18 06:22:57;;;;;;;3.00;1.23;;;19.50;77.30;;;;;;7870663;28;20196;-53
2021/12/18 06:26:44;;;;;;;1.98;1.38;;;19.50;77.40;;;;;;7870851;28;20178;-50
2021/12/18 06:30:30;;;;;;;3.65;1.35;;;19.50;77.40;;;;;;7860559;28;20221;-52
2021/12/18 06:34:16;;;;;;;1.60;1.05;;;19.50;77.30;;;;;;7839243;28;20635;-51
2021/12/18 06:38:01;;;;;;;1.55;1.42;;;19.50;77.30;;;;;;7840538;28;20588;-51
2021/12/18 06:41:48;;;;;;;1.45;1.20;;;19.50;77.30;;;;;;7866258;28;20606;-52
2021/12/18 06:45:34;;;;;;;1.40;1.25;;;19.50;77.30;;;;;;7846371;28;20220;-49
2021/12/18 06:49:19;;;;;;;1.20;1.10;;;19.50;77.20;;;;;;7838783;28;20221;-49
2021/12/18 06:53:06;;;;;;;2.08;1.05;;;19.40;77.20;;;;;;7859059;28;20231;-54
2021/12/18 06:56:51;;;;;;;1.75;1.27;;;19.50;77.30;;;;;;7869881;28;20177;-52
2021/12/18 07:00:37;;;;;;;1.73;1.30;;;19.50;77.20;;;;;;7869510;28;20193;-52
2021/12/18 07:04:24;;;;;;;5.18;1.02;;;19.40;77.10;;;;;;7841413;28;20193;-53
2021/12/18 07:08:10;;;;;;;1.33;1.10;;;19.40;77.60;;;;;;7863328;28;20208;-52
2021/12/18 07:11:55;;;;;;;3.22;1.30;;;19.40;77.10;;;;;;7869149;28;20193;-51
2021/12/18 07:15:42;;;;;;;1.65;1.20;;;19.40;77.20;;;;;;7869248;28;20647;-50
2021/12/18 07:19:27;;;;;;;1.95;1.27;;;19.40;77.30;;;;;;7871610;28;20189;-49
2021/12/18 07:23:13;;;;;;;2.10;1.30;;;19.40;77.30;;;;;;7871130;28;20276;-49
2021/12/18 07:26:58;;;;;;;2.95;1.40;;;19.40;77.20;;;;;;7871655;28;20209;-51
2021/12/18 07:30:44;;;;;;;2.72;1.20;;;19.40;77.10;;;;;;7871094;28;20196;-49
2021/12/18 07:34:29;;;;;;;4.00;1.35;;;19.40;78.00;;;;;;7871524;28;20184;-49
2021/12/18 07:38:15;;;;;;;2.45;1.30;;;19.40;77.20;;;;;;7863891;28;20225;-49
2021/12/18 07:42:01;;;;;;;1.70;1.58;;;19.30;77.20;;;;;;7871141;28;20243;-49
2021/12/18 07:45:46;;;;;;;4.30;1.50;;;19.30;77.20;;;;;;7871169;28;20184;-51
2021/12/18 07:49:32;;;;;;;6.38;2.10;;;19.30;77.30;;;;;;7843382;28;20224;-50
2021/12/18 07:53:17;;;;;;;12.60;1.77;;;19.40;77.40;;;;;;7840129;28;20186;-49
2021/12/18 07:57:04;;;;;;;9.75;1.73;;;19.40;77.30;;;;;;7841057;28;20298;-52
2021/12/18 08:00:49;;;;;;;23.58;2.33;;;19.30;77.30;;;;;;7845588;28;20308;-51
2021/12/18 08:04:35;;;;;;;20.23;2.65;;;19.30;77.20;;;;;;7876231;28;20187;-51
2021/12/18 08:08:20;;;;;;;23.08;1.90;;;19.30;77.20;;;;;;7845550;28;20217;-49
2021/12/18 08:12:06;;;;;;;7.03;2.00;;;19.30;77.20;;;;;;7845773;28;20590;-51
2021/12/18 08:15:51;;;;;;;14.80;2.40;;;19.30;77.20;;;;;;7845627;28;20162;-52
2021/12/18 08:19:37;;;;;;;12.18;1.52;;;19.20;77.30;;;;;;7845434;28;20224;-50
2021/12/18 08:23:22;;;;;;;20.38;1.70;;;19.30;77.40;;;;;;7871123;28;20189;-49
2021/12/18 08:27:08;;;;;;;22.20;2.03;;;19.20;77.30;;;;;;7875536;28;20284;-51
2021/12/18 08:30:54;;;;;;;5.30;1.42;;;19.20;77.50;;;;;;7849634;28;20236;-53
2021/12/18 08:34:39;;;;;;;4.97;1.70;;;19.20;77.40;;;;;;7845814;28;20170;-50
2021/12/18 08:38:25;;;;;;;10.52;1.60;;;19.20;77.10;;;;;;7870935;28;20205;-52
2021/12/18 08:45:07;;;;;;;19.25;1.80;;;19.30;77.90;;;;;;7896293;28;20504;-51
2021/12/18 08:48:52;;;;;;;13.52;1.30;;;19.50;76.40;;;;;;7848641;28;20214;-51
2021/12/18 08:52:38;;;;;;;16.85;1.58;;;19.60;76.50;;;;;;7834105;28;20189;-51
2021/12/18 08:56:24;;;;;;;8.23;1.33;;;19.70;76.70;;;;;;7833843;28;20174;-51
2021/12/18 09:00:12;;;;;;;16.52;1.77;;;19.90;76.70;;;;;;7831901;28;20233;-51
2021/12/18 09:03:58;;;;;;;18.08;2.35;;;20.10;76.20;;;;;;7831773;28;20216;-54
2021/12/18 09:07:44;;;;;;;11.35;1.40;;;20.40;75.80;;;;;;7833194;28;20663;-51
2021/12/18 09:11:29;;;;;;;20.65;2.83;;;20.60;75.50;;;;;;7833445;28;20636;-50
2021/12/18 09:15:15;;;;;;;16.40;1.85;;;20.80;75.20;;;;;;7833377;28;20179;-52
2021/12/18 09:19:01;;;;;;;20.00;2.35;;;21.00;75.00;;;;;;7832892;28;20205;-51
2021/12/18 09:22:46;;;;;;;22.65;2.92;;;21.10;74.90;;;;;;7833088;28;20225;-50
2021/12/18 09:26:32;;;;;;;20.35;2.45;;;21.20;74.80;;;;;;7833023;28;20174;-52
2021/12/18 09:30:17;;;;;;;15.45;2.67;;;21.30;74.80;;;;;;7832659;28;20599;-51
2021/12/18 09:34:03;;;;;;;16.27;2.30;;;21.30;74.70;;;;;;7832833;28;20253;-50
2021/12/18 09:37:48;;;;;;;16.95;2.17;;;21.40;74.70;;;;;;7832475;28;20263;-51
2021/12/18 09:41:34;;;;;;;23.65;2.60;;;21.40;74.70;;;;;;7832362;28;20178;-52
2021/12/18 09:45:21;;;;;;;12.05;2.55;;;21.40;74.70;;;;;;7832473;28;20640;-52
2021/12/18 09:49:07;;;;;;;14.80;2.60;;;21.50;74.70;;;;;;7831997;28;20667;-51
2021/12/18 09:52:53;;;;;;;14.18;2.22;;;21.50;74.80;;;;;;7823400;28;20556;-49
2021/12/18 09:56:39;;;;;;;20.73;3.00;;;21.50;74.80;;;;;;7779052;28;20187;-49
2021/12/18 10:00:25;;;;;;;34.53;2.67;;;21.50;74.80;;;;;;7806189;28;20193;-50
2021/12/18 10:04:31;;;;;;;14.05;2.38;;;21.50;74.90;;;;;;7811114;28;20205;-50
2021/12/18 10:08:19;;;;;;;18.55;2.80;;;21.50;75.00;;;;;;7811112;28;20256;-50
2021/12/18 10:12:23;;;;;;;22.02;2.22;;;21.50;75.00;;;;;;7811209;28;20209;-50
2021/12/18 10:16:12;;;;;;;13.07;2.20;;;21.40;75.20;;;;;;7810692;28;20178;-50
2021/12/18 10:20:09;;;;;;;22.23;4.13;;;21.30;75.10;;;;;;7786177;28;20205;-50
2021/12/18 10:23:56;;;;;;;19.73;3.05;;;21.10;74.50;;;;;;7794434;28;20683;-50
2021/12/18 10:27:44;;;;;;;28.77;3.13;;;21.10;75.10;;;;;;7804299;28;20199;-50
2021/12/18 10:31:44;;;;;;;20.02;3.33;;;21.10;75.30;;;;;;7780026;28;20178;-50
2021/12/18 10:35:39;;;;;;;25.98;3.13;;;21.20;75.00;;;;;;7779957;28;20182;-51
2021/12/18 10:39:26;;;;;;;28.55;3.05;;;21.40;75.40;;;;;;7779451;28;20202;-52
2021/12/18 10:43:14;;;;;;;27.77;3.42;;;21.70;75.30;;;;;;7779371;28;20219;-49
2021/12/18 10:46:59;;;;;;;32.22;3.92;;;22.00;75.30;;;;;;7794359;28;20214;-52
2021/12/18 10:50:51;;;;;;;32.05;3.30;;;22.30;75.30;;;;;;7809827;28;20232;-52
2021/12/18 10:54:37;;;;;;;37.03;3.10;;;22.60;75.10;;;;;;7809863;28;20614;-50
2021/12/18 10:58:28;;;;;;;33.80;3.50;;;22.80;74.90;;;;;;7809358;28;20217;-51
2021/12/18 11:02:15;;;;;;;36.83;3.90;;;23.10;74.90;;;;;;7809594;28;20202;-49
2021/12/18 11:06:18;;;;;;;19.95;3.30;;;23.30;74.90;;;;;;7808476;28;20178;-50
2021/12/18 11:14:36;;;;;;;40.00;3.85;;;23.60;74.90;;;;;;7809644;28;20183;-50
2021/12/18 11:18:22;;;;;;;37.20;3.40;;;23.70;74.80;;;;;;7808901;28;20221;-51
2021/12/18 11:22:14;;;;;;;33.40;3.33;;;23.80;75.00;;;;;;7809116;28;20207;-49
2021/12/18 11:25:59;;;;;;;39.03;4.47;;;23.90;75.20;;;;;;7808955;28;20701;-51
2021/12/18 11:29:56;;;;;;;47.13;4.13;;;23.90;75.30;;;;;;7808588;28;20621;-51
2021/12/18 11:33:41;;;;;;;26.27;3.60;;;23.80;75.70;;;;;;7808710;28;20171;-51
2021/12/18 11:37:33;;;;;;;37.65;4.60;;;23.80;75.90;;;;;;7808298;28;20322;-50
2021/12/18 11:41:19;;;;;;;38.58;3.83;;;23.80;76.10;;;;;;7808501;28;20179;-49
2021/12/18 11:45:06;;;;;;;34.78;4.47;;;23.70;76.20;;;;;;7808410;28;20214;-53
2021/12/18 11:49:06;;;;;;;37.65;5.25;;;23.60;72.40;;;;;;7807858;28;20218;-50
2021/12/18 11:53:06;;;;;;;34.05;3.50;;;23.40;76.40;;;;;;7808285;28;20190;-49
2021/12/18 11:56:51;;;;;;;32.75;3.63;;;23.30;76.30;;;;;;7808102;28;20205;-50
2021/12/18 12:00:40;;;;;;;24.58;3.90;;;23.30;76.30;;;;;;7807729;28;20182;-50
2021/12/18 12:04:26;;;;;;;30.65;4.40;;;23.10;76.30;;;;;;7807822;28;20210;-50
2021/12/18 12:08:20;;;;;;;32.05;4.38;;;23.00;76.20;;;;;;7807501;28;20229;-50
2021/12/18 12:12:09;;;;;;;26.60;3.38;;;23.00;76.50;;;;;;7807864;28;20182;-49
2021/12/18 12:15:54;;;;;;;27.50;3.47;;;23.10;76.20;;;;;;7807706;28;20171;-50
2021/12/18 12:19:46;;;;;;;28.55;3.95;;;23.20;76.10;;;;;;7807142;28;20690;-54
2021/12/18 12:24:01;;;;;;;32.83;4.22;;;23.30;76.10;;;;;;7807446;28;20210;-50
2021/12/18 12:28:01;;;;;;;33.20;3.80;;;23.50;76.50;;;;;;7807076;28;20202;-50
2021/12/18 12:32:05;;;;;;;29.65;3.35;;;23.60;76.60;;;;;;7807361;28;20185;-50
2021/12/18 12:36:00;;;;;;;29.75;3.92;;;23.80;77.00;;;;;;7807304;28;20224;-51
2021/12/18 12:40:02;;;;;;;19.58;3.05;;;23.90;77.40;;;;;;7807011;28;20702;-53
2021/12/18 12:43:48;;;;;;;27.40;3.33;;;24.00;77.20;;;;;;7807511;28;20264;-50
2021/12/18 12:47:34;;;;;;;28.20;4.13;;;24.00;76.80;;;;;;7807379;28;20194;-53
2021/12/18 12:51:19;;;;;;;12.95;2.47;;;24.10;76.50;;;;;;7807313;28;20183;-54
2021/12/18 12:55:05;;;;;;;14.00;3.25;;;24.10;76.20;;;;;;7807436;28;20632;-53
2021/12/18 12:59:23;;;;;;;19.55;3.35;;;24.00;76.20;;;;;;7806830;28;20199;-49
2021/12/18 13:03:21;;;;;;;24.65;3.05;;;24.00;76.50;;;;;;7806928;28;20297;-52
2021/12/18 13:07:07;;;;;;;18.13;3.13;;;23.90;76.30;;;;;;7806921;28;20743;-50
2021/12/18 13:10:55;;;;;;;11.38;2.60;;;23.90;76.20;;;;;;7806600;28;20172;-51
2021/12/18 13:14:42;;;;;;;19.08;2.90;;;24.00;76.20;;;;;;7807197;28;20191;-49
2021/12/18 13:18:32;;;;;;;14.25;2.60;;;24.00;76.20;;;;;;7806526;28;20663;-50
2021/12/18 13:22:17;;;;;;;10.23;2.92;;;24.10;76.20;;;;;;7806889;28;20206;-51
2021/12/18 13:26:05;;;;;;;10.00;2.45;;;24.20;76.10;;;;;;7806540;28;20206;-50
2021/12/18 13:30:26;;;;;;;6.85;2.38;;;24.20;76.00;;;;;;7808621;28;20199;-50
2021/12/18 13:34:20;;;;;;;14.35;2.00;;;24.20;76.10;;;;;;7812688;28;20178;-52
2021/12/18 13:38:10;;;;;;;10.68;2.00;;;24.30;75.90;;;;;;7812079;28;20202;-50
2021/12/18 13:42:14;;;;;;;11.55;2.40;;;24.40;75.80;;;;;;7811904;28;20202;-50
2021/12/18 13:46:06;;;;;;;13.43;2.75;;;24.40;75.80;;;;;;7812029;28;20181;-50
2021/12/18 13:50:00;;;;;;;7.00;2.17;;;24.40;75.80;;;;;;7811632;28;20199;-50
2021/12/18 13:53:55;;;;;;;13.68;2.30;;;24.40;75.90;;;;;;7811738;28;20177;-52
2021/12/18 13:57:55;;;;;;;8.85;2.30;;;24.40;75.80;;;;;;7811238;28;20600;-51
2021/12/18 14:01:40;;;;;;;10.27;2.20;;;24.30;75.80;;;;;;7811560;28;20190;-52
2021/12/18 14:05:26;;;;;;;9.23;2.33;;;24.30;75.80;;;;;;7811381;28;20179;-50
2021/12/18 14:09:16;;;;;;;9.23;2.55;;;24.30;76.00;;;;;;7810965;28;20198;-51
2021/12/18 14:13:02;;;;;;;10.88;2.30;;;24.20;76.00;;;;;;7811253;28;20174;-52
2021/12/18 14:16:53;;;;;;;9.02;2.60;;;24.20;76.00;;;;;;7810986;28;20193;-50
2021/12/18 14:20:45;;;;;;;8.77;2.55;;;24.10;76.00;;;;;;7810752;28;20175;-50
2021/12/18 14:24:32;;;;;;;7.05;2.10;;;24.00;76.00;;;;;;7810808;28;20202;-51
2021/12/18 14:28:19;;;;;;;6.35;2.30;;;23.90;76.10;;;;;;7810418;28;20285;-50
2021/12/18 14:32:07;;;;;;;6.95;2.25;;;23.90;76.10;;;;;;7810622;28;20221;-50
2021/12/18 14:35:53;;;;;;;8.88;2.22;;;23.80;76.10;;;;;;7809223;28;20565;-52
2021/12/18 14:39:52;;;;;;;6.05;2.60;;;23.80;76.10;;;;;;7809611;28;20348;-53
2021/12/18 14:43:38;;;;;;;7.15;2.30;;;23.70;76.30;;;;;;7784917;28;20326;-52
2021/12/18 14:47:28;;;;;;;6.85;2.10;;;23.60;76.40;;;;;;7779528;28;20200;-54
2021/12/18 14:51:25;;;;;;;9.82;2.58;;;23.50;76.40;;;;;;7779426;28;20167;-52
2021/12/18 14:55:10;;;;;;;7.68;2.38;;;23.40;76.50;;;;;;7779348;28;20187;-51
2021/12/18 14:58:56;;;;;;;7.55;2.80;;;23.40;76.50;;;;;;7778924;28;20206;-50
2021/12/18 15:02:58;;;;;;;5.15;2.38;;;23.30;76.50;;;;;;7779076;28;20210;-52
2021/12/18 15:06:44;;;;;;;5.68;2.30;;;23.30;76.60;;;;;;7779202;28;20729;-50
2021/12/18 15:10:52;;;;;;;11.02;2.50;;;23.20;76.60;;;;;;7778892;28;20186;-52
2021/12/18 15:14:38;;;;;;;6.78;2.17;;;23.10;76.60;;;;;;7779121;28;20187;-50
2021/12/18 15:18:23;;;;;;;5.25;2.35;;;23.10;76.60;;;;;;7778527;28;20285;-51
2021/12/18 15:22:12;;;;;;;6.72;2.25;;;23.00;76.70;;;;;;7778577;28;20832;-50
2021/12/18 15:25:57;;;;;;;6.85;2.50;;;22.90;76.70;;;;;;7778430;28;20633;-49
2021/12/18 15:29:45;;;;;;;9.20;2.83;;;22.80;76.70;;;;;;7778048;28;20601;-53
2021/12/18 15:33:31;;;;;;;13.68;2.55;;;22.80;76.80;;;;;;7778290;28;20202;-52
2021/12/18 15:37:17;;;;;;;6.57;2.60;;;22.70;76.70;;;;;;7777936;28;20703;-54
2021/12/18 15:41:03;;;;;;;6.25;2.20;;;22.70;76.80;;;;;;7777749;28;20555;-50
2021/12/18 15:44:49;;;;;;;5.70;2.45;;;22.60;76.90;;;;;;7777744;28;20207;-52
2021/12/18 15:48:35;;;;;;;6.13;2.30;;;22.50;76.90;;;;;;7777680;28;20202;-50
2021/12/18 15:52:20;;;;;;;11.43;2.78;;;22.50;77.00;;;;;;7777198;28;20185;-50
2021/12/18 15:56:06;;;;;;;5.68;2.63;;;22.40;76.90;;;;;;7777613;28;20176;-53
2021/12/18 15:59:52;;;;;;;5.38;2.45;;;22.40;77.10;;;;;;7777243;28;20708;-52
2021/12/18 16:03:38;;;;;;;6.25;2.60;;;22.30;77.10;;;;;;7777309;28;20557;-51
2021/12/18 16:07:23;;;;;;;5.18;2.80;;;22.20;77.10;;;;;;7777201;28;20191;-54
2021/12/18 16:11:10;;;;;;;7.18;2.50;;;22.20;77.10;;;;;;7777060;28;20187;-50
2021/12/18 16:14:55;;;;;;;8.50;2.90;;;22.10;77.20;;;;;;7777319;28;20184;-51
2021/12/18 16:18:41;;;;;;;8.50;2.80;;;22.10;77.20;;;;;;7776759;28;20286;-50
2021/12/18 16:22:26;;;;;;;6.60;2.88;;;22.00;77.20;;;;;;7779995;28;20195;-50
2021/12/18 16:26:12;;;;;;;9.70;2.65;;;22.00;77.20;;;;;;7776888;28;20261;-51
2021/12/18 16:29:58;;;;;;;6.40;2.85;;;21.90;77.20;;;;;;7776573;28;20196;-52
2021/12/18 16:33:43;;;;;;;7.32;3.22;;;21.90;77.40;;;;;;7776731;28;20212;-50
2021/12/18 16:37:31;;;;;;;11.38;2.88;;;21.80;77.70;;;;;;7776419;28;20577;-50
2021/12/18 16:41:18;;;;;;;11.23;3.20;;;21.80;77.80;;;;;;7776631;28;20210;-53
2021/12/18 16:45:07;;;;;;;6.63;2.85;;;21.80;77.90;;;;;;7776450;28;20207;-50
2021/12/18 16:48:52;;;;;;;8.23;3.35;;;21.80;77.80;;;;;;7778448;28;20198;-51
2021/12/18 16:52:38;;;;;;;8.95;2.80;;;21.90;77.80;;;;;;7807027;28;20640;-50
2021/12/18 16:56:24;;;;;;;11.88;2.80;;;21.90;77.60;;;;;;7807047;28;20685;-50
2021/12/18 17:00:10;;;;;;;7.00;2.97;;;21.90;77.20;;;;;;7806702;28;20207;-50
2021/12/18 17:04:00;;;;;;;7.38;2.97;;;22.00;77.10;;;;;;7807975;28;20198;-53
2021/12/18 17:07:45;;;;;;;7.18;2.80;;;21.90;76.90;;;;;;7812751;28;20189;-50
2021/12/18 17:11:31;;;;;;;7.85;2.70;;;21.90;76.70;;;;;;7812989;28;20640;-52
2021/12/18 17:15:16;;;;;;;7.78;2.90;;;21.90;76.70;;;;;;7812968;28;20187;-50
2021/12/18 17:19:03;;;;;;;9.18;2.97;;;21.80;76.50;;;;;;7802767;28;20207;-50
2021/12/18 17:22:49;;;;;;;6.50;2.72;;;21.80;77.70;;;;;;7799806;28;20213;-49
2021/12/18 17:26:39;;;;;;;6.18;3.03;;;21.70;77.10;;;;;;7812807;28;20179;-49
2021/12/18 17:30:25;;;;;;;14.18;3.08;;;21.80;77.10;;;;;;7812327;28;20225;-50
2021/12/18 17:34:10;;;;;;;10.80;3.67;;;21.70;77.40;;;;;;7812765;28;20226;-50
2021/12/18 17:37:56;;;;;;;9.82;3.25;;;21.70;77.40;;;;;;7812159;28;20328;-51
2021/12/18 17:41:42;;;;;;;12.50;3.90;;;21.70;77.40;;;;;;7819887;28;20213;-50
2021/12/18 17:45:28;;;;;;;12.32;3.45;;;21.80;77.40;;;;;;7827669;28;20183;-49
2021/12/18 17:49:13;;;;;;;8.68;3.60;;;21.80;76.80;;;;;;7825976;28;20264;-49
2021/12/18 17:52:59;;;;;;;9.43;3.08;;;21.80;76.40;;;;;;7826305;28;20181;-51
2021/12/18 17:56:45;;;;;;;7.82;3.03;;;21.80;76.20;;;;;;7820655;28;20183;-52
2021/12/18 18:00:31;;;;;;;13.65;3.58;;;21.80;76.50;;;;;;7814199;28;20201;-52
2021/12/18 18:04:16;;;;;;;12.93;3.60;;;21.80;76.80;;;;;;7808281;28;20207;-52
2021/12/18 18:08:02;;;;;;;11.48;3.90;;;21.80;76.90;;;;;;7811092;28;20248;-49
2021/12/18 18:11:48;;;;;;;11.23;3.83;;;21.80;77.10;;;;;;7810433;28;20191;-53
2021/12/18 18:15:33;;;;;;;14.02;3.88;;;21.80;77.20;;;;;;7798663;28;20183;-51
2021/12/18 18:19:19;;;;;;;11.80;3.63;;;21.80;77.40;;;;;;7779453;28;20684;-53
2021/12/18 18:23:05;;;;;;;5.93;3.33;;;21.80;76.80;;;;;;7780211;28;20573;-49
2021/12/18 18:26:52;;;;;;;9.77;3.55;;;21.90;76.10;;;;;;7780014;28;20183;-50
2021/12/18 18:30:39;;;;;;;6.50;3.33;;;22.00;75.60;;;;;;7779765;28;20175;-50
2021/12/18 18:34:24;;;;;;;9.82;3.03;;;22.10;75.30;;;;;;7779859;28;20663;-52
2021/12/18 18:38:10;;;;;;;9.00;3.03;;;22.20;75.10;;;;;;7795948;28;20568;-50
2021/12/18 18:41:55;;;;;;;15.23;3.40;;;22.30;74.90;;;;;;7810170;28;20714;-53
2021/12/18 18:45:41;;;;;;;11.93;3.33;;;22.40;75.10;;;;;;7784826;28;20195;-50
2021/12/18 18:49:27;;;;;;;17.73;3.53;;;22.50;75.30;;;;;;7800450;28;20203;-55
2021/12/18 18:53:12;;;;;;;20.55;4.10;;;22.50;76.00;;;;;;7805738;28;20245;-50
2021/12/18 18:56:58;;;;;;;14.23;3.60;;;22.60;77.50;;;;;;7779075;28;20249;-51
2021/12/18 19:00:44;;;;;;;13.07;3.63;;;22.70;78.40;;;;;;7786759;28;20227;-51
2021/12/18 19:04:29;;;;;;;16.45;3.55;;;22.70;79.00;;;;;;7788814;28;20840;-51
2021/12/18 19:08:16;;;;;;;15.55;3.45;;;22.70;78.90;;;;;;7778280;28;20290;-49
2021/12/18 19:12:03;;;;;;;12.07;3.25;;;22.70;78.70;;;;;;7792391;28;20240;-54
2021/12/18 19:15:49;;;;;;;10.32;3.45;;;22.70;78.70;;;;;;7800897;28;20191;-49
2021/12/18 19:19:48;;;;;;;12.40;3.55;;;22.70;78.50;;;;;;7778394;28;20242;-50
2021/12/18 19:23:33;;;;;;;19.80;3.65;;;22.70;78.20;;;;;;7798160;28;20233;-49
2021/12/18 19:27:19;;;;;;;18.20;3.20;;;22.60;77.90;;;;;;7839219;28;20764;-50
2021/12/18 19:31:06;;;;;;;12.57;3.50;;;22.60;78.30;;;;;;7839701;28;20174;-51
2021/12/18 19:34:52;;;;;;;10.52;3.25;;;22.50;78.00;;;;;;7838309;28;20204;-49
2021/12/18 19:38:39;;;;;;;12.02;2.88;;;22.50;78.10;;;;;;7808462;28;20199;-50
2021/12/18 19:42:26;;;;;;;9.98;2.90;;;22.40;78.00;;;;;;7808806;28;20276;-52
2021/12/18 19:46:12;;;;;;;9.93;3.80;;;22.40;78.00;;;;;;7808953;28;20622;-49
2021/12/18 19:49:59;;;;;;;8.00;3.30;;;22.40;78.00;;;;;;7808473;28;20681;-49
2021/12/18 19:53:46;;;;;;;16.27;4.10;;;22.30;77.80;;;;;;7808847;28;20213;-49
2021/12/18 19:57:32;;;;;;;13.95;3.13;;;22.30;77.70;;;;;;7808249;28;20206;-50
2021/12/18 20:01:17;;;;;;;14.77;3.15;;;22.30;77.70;;;;;;7808382;28;20181;-52
2021/12/18 20:05:03;;;;;;;10.55;3.88;;;22.40;78.50;;;;;;7807821;28;20218;-49
2021/12/18 20:08:49;;;;;;;8.27;3.35;;;22.40;79.30;;;;;;7795664;28;20290;-50
2021/12/18 20:12:36;;;;;;;16.60;3.85;;;22.40;79.50;;;;;;7777213;28;20611;-51
2021/12/18 20:16:21;;;;;;;10.80;3.30;;;22.50;79.50;;;;;;7789384;28;20179;-49
2021/12/18 20:20:08;;;;;;;13.32;3.50;;;22.60;79.20;;;;;;7794867;28;20281;-49
2021/12/18 20:23:54;;;;;;;9.25;3.25;;;22.70;79.40;;;;;;7787433;28;20210;-49
2021/12/18 20:27:40;;;;;;;8.85;3.22;;;22.80;79.30;;;;;;7793832;28;20692;-50